createdAt,value
2022-08-30T00:01:38.790Z,75.59
2022-08-30T00:04:11.499Z,75.63
2022-08-30T00:06:44.049Z,75.51
2022-08-30T00:09:16.566Z,75.51
2022-08-30T00:11:52.338Z,75.75
2022-08-30T00:14:27.659Z,75.57
2022-08-30T00:17:00.321Z,75.76
2022-08-30T00:19:32.860Z,75.68
2022-08-30T00:22:07.311Z,75.73
2022-08-30T00:24:40.089Z,75.71
2022-08-30T00:27:14.343Z,75.82
2022-08-30T00:29:47.121Z,75.75
2022-08-30T00:32:21.602Z,75.57
2022-08-30T00:34:54.975Z,75.84
2022-08-30T00:37:27.488Z,75.63
2022-08-30T00:40:00.251Z,75.60
2022-08-30T00:42:34.249Z,75.99
2022-08-30T00:45:12.774Z,76.12
2022-08-30T00:47:45.372Z,75.88
2022-08-30T00:50:20.604Z,75.84
2022-08-30T00:52:56.371Z,76.01
2022-08-30T00:55:29.959Z,76.34
2022-08-30T00:58:07.381Z,76.05
2022-08-30T01:00:40.463Z,76.04
2022-08-30T01:03:13.308Z,76.17
2022-08-30T01:05:48.545Z,76.10
2022-08-30T01:08:22.667Z,76.26
2022-08-30T01:10:57.469Z,76.24
2022-08-30T01:13:32.879Z,76.07
2022-08-30T01:16:06.238Z,76.02
2022-08-30T01:18:39.844Z,76.12
2022-08-30T01:21:17.874Z,75.97
2022-08-30T01:23:56.212Z,75.89
2022-08-30T01:26:30.852Z,75.94
2022-08-30T01:29:09.551Z,76.19
2022-08-30T01:31:42.076Z,76.19
2022-08-30T01:34:14.669Z,76.29
2022-08-30T01:36:47.622Z,76.32
2022-08-30T01:39:21.987Z,76.25
2022-08-30T01:41:54.573Z,76.07
2022-08-30T01:44:27.250Z,76.04
2022-08-30T01:46:59.874Z,75.99
2022-08-30T01:49:32.458Z,76.15
2022-08-30T01:52:06.260Z,76.21
2022-08-30T01:54:42.220Z,76.26
2022-08-30T01:57:21.049Z,76.49
2022-08-30T01:59:54.672Z,76.32
2022-08-30T02:02:29.592Z,76.41
2022-08-30T02:05:03.017Z,76.35
2022-08-30T02:07:35.852Z,76.27
2022-08-30T02:10:10.775Z,76.42
2022-08-30T02:12:43.288Z,76.31
2022-08-30T02:15:16.498Z,76.56
2022-08-30T02:17:49.237Z,76.50
2022-08-30T02:20:21.966Z,76.36
2022-08-30T02:22:55.929Z,76.37
2022-08-30T02:25:31.676Z,76.40
2022-08-30T02:28:06.072Z,76.53
2022-08-30T02:30:39.088Z,76.31
2022-08-30T02:33:11.770Z,76.09
2022-08-30T02:35:44.393Z,76.57
2022-08-30T02:38:20.106Z,76.45
2022-08-30T02:40:54.309Z,76.21
2022-08-30T02:43:27.048Z,76.35
2022-08-30T02:45:59.599Z,76.37
2022-08-30T02:48:32.580Z,76.44
2022-08-30T02:51:11.447Z,76.57
2022-08-30T02:53:45.049Z,76.37
2022-08-30T02:56:19.170Z,76.32
2022-08-30T02:58:51.904Z,76.19
2022-08-30T03:01:28.728Z,76.39
2022-08-30T03:04:02.115Z,76.33
2022-08-30T03:06:34.703Z,76.39
2022-08-30T03:09:07.544Z,76.54
2022-08-30T03:11:42.821Z,76.42
2022-08-30T03:14:15.363Z,76.40
2022-08-30T03:16:47.960Z,76.31
2022-08-30T03:19:21.194Z,76.43
2022-08-30T03:21:54.133Z,76.48
2022-08-30T03:24:26.707Z,76.12
2022-08-30T03:27:00.937Z,76.33
2022-08-30T03:29:33.860Z,76.47
2022-08-30T03:32:06.401Z,76.52
2022-08-30T03:34:38.984Z,76.29
2022-08-30T03:37:11.662Z,76.38
2022-08-30T03:39:45.689Z,76.01
2022-08-30T03:42:20.164Z,76.27
2022-08-30T03:44:54.453Z,76.21
2022-08-30T03:47:26.953Z,76.23
2022-08-30T03:50:00.105Z,75.95
2022-08-30T03:52:32.853Z,76.48
2022-08-30T03:55:06.840Z,76.35
2022-08-30T03:57:43.559Z,76.23
2022-08-30T04:00:17.718Z,76.38
2022-08-30T04:02:50.227Z,76.13
2022-08-30T04:05:22.755Z,76.01
2022-08-30T04:07:55.553Z,76.18
2022-08-30T04:10:28.266Z,76.11
2022-08-30T04:13:02.210Z,76.21
2022-08-30T04:15:34.993Z,75.97
2022-08-30T04:18:07.497Z,76.01
2022-08-30T04:20:40.208Z,75.73
2022-08-30T04:23:13.036Z,75.93
2022-08-30T04:25:46.532Z,75.85
2022-08-30T04:28:20.534Z,75.83
2022-08-30T04:30:53.168Z,75.52
2022-08-30T04:33:25.636Z,75.78
2022-08-30T04:36:04.657Z,75.72
2022-08-30T04:38:39.536Z,75.58
2022-08-30T04:41:16.553Z,75.37
2022-08-30T04:43:50.847Z,75.38
2022-08-30T04:46:23.631Z,75.29
2022-08-30T04:48:56.207Z,75.01
2022-08-30T04:51:28.842Z,75.05
2022-08-30T04:54:01.405Z,74.92
2022-08-30T04:56:34.952Z,74.39
2022-08-30T04:59:08.895Z,73.78
2022-08-30T05:01:45.214Z,72.91
2022-08-30T05:04:18.479Z,72.48
2022-08-30T05:06:51.241Z,72.14
2022-08-30T05:09:24.220Z,72.09
2022-08-30T05:11:56.734Z,72.27
2022-08-30T05:14:30.717Z,72.25
2022-08-30T05:17:03.303Z,72.11
2022-08-30T05:19:37.560Z,72.32
2022-08-30T05:22:10.498Z,72.10
2022-08-30T05:24:43.180Z,71.78
2022-08-30T05:27:15.993Z,71.54
2022-08-30T05:29:49.913Z,71.61
2022-08-30T05:32:22.543Z,72.03
2022-08-30T05:34:55.905Z,71.12
2022-08-30T05:37:28.424Z,70.74
2022-08-30T05:40:01.590Z,70.46
2022-08-30T05:42:37.783Z,70.38
2022-08-30T05:45:13.413Z,70.47
2022-08-30T05:47:47.734Z,70.47
2022-08-30T05:50:20.331Z,70.50
2022-08-30T05:52:53.222Z,70.85
2022-08-30T05:55:25.787Z,71.54
2022-08-30T05:57:58.616Z,71.21
2022-08-30T06:00:32.472Z,71.16
2022-08-30T06:03:05.149Z,70.95
2022-08-30T06:05:38.090Z,70.96
2022-08-30T06:08:10.977Z,70.84
2022-08-30T06:10:43.725Z,70.76
2022-08-30T06:13:16.813Z,70.64
2022-08-30T06:15:52.807Z,70.64
2022-08-30T06:18:28.378Z,70.73
2022-08-30T06:21:01.341Z,70.50
2022-08-30T06:23:34.078Z,70.35
2022-08-30T06:26:07.789Z,70.66
2022-08-30T06:28:40.413Z,70.64
2022-08-30T06:31:16.463Z,70.37
2022-08-30T06:33:49.373Z,69.86
2022-08-30T06:36:24.734Z,69.33
2022-08-30T06:38:58.747Z,69.34
2022-08-30T06:41:33.244Z,68.98
2022-08-30T06:44:06.665Z,68.79
2022-08-30T06:46:40.750Z,68.39
2022-08-30T06:49:13.397Z,67.88
2022-08-30T06:51:46.049Z,67.92
2022-08-30T06:54:18.698Z,67.34
2022-08-30T06:56:59.109Z,66.63
2022-08-30T06:59:32.532Z,66.81
2022-08-30T07:02:07.781Z,66.92
2022-08-30T07:04:41.125Z,66.80
2022-08-30T07:07:13.589Z,66.53
2022-08-30T07:09:46.362Z,66.88
2022-08-30T07:12:18.972Z,66.97
2022-08-30T07:14:51.606Z,67.40
2022-08-30T07:17:44.060Z,67.52
2022-08-30T07:20:16.629Z,67.82
2022-08-30T07:22:49.330Z,67.52
2022-08-30T07:25:23.103Z,67.55
2022-08-30T07:27:57.276Z,66.95
2022-08-30T07:30:29.937Z,67.14
2022-08-30T07:33:04.177Z,66.62
2022-08-30T07:35:37.490Z,66.43
2022-08-30T07:38:13.281Z,66.65
2022-08-30T07:40:45.891Z,65.98
2022-08-30T07:43:19.050Z,66.00
2022-08-30T07:45:51.745Z,65.70
2022-08-30T07:48:26.201Z,65.88
2022-08-30T07:51:03.097Z,65.43
2022-08-30T07:53:37.682Z,65.17
2022-08-30T07:56:10.548Z,65.37
2022-08-30T07:58:43.429Z,65.62
2022-08-30T08:01:16.917Z,65.62
2022-08-30T08:03:51.672Z,65.29
2022-08-30T08:06:25.000Z,64.86
2022-08-30T08:09:02.377Z,64.83
2022-08-30T08:11:36.056Z,65.13
2022-08-30T08:14:09.805Z,64.61
2022-08-30T08:16:44.913Z,64.68
2022-08-30T08:19:19.801Z,64.70
2022-08-30T08:22:19.423Z,64.40
2022-08-30T08:24:49.962Z,64.48
2022-08-30T08:27:24.814Z,64.61
2022-08-30T08:29:57.361Z,64.37
2022-08-30T08:32:29.910Z,64.08
2022-08-30T08:35:04.754Z,64.51
2022-08-30T08:37:37.598Z,63.56
2022-08-30T08:40:15.280Z,63.03
2022-08-30T08:43:01.074Z,63.27
2022-08-30T08:45:43.420Z,63.03
2022-08-30T08:48:32.036Z,62.79
2022-08-30T08:51:40.198Z,62.63
2022-08-30T08:54:16.618Z,62.28
2022-08-30T08:56:49.298Z,61.97
2022-08-30T08:59:22.019Z,62.11
2022-08-30T09:01:58.162Z,61.69
2022-08-30T09:04:35.764Z,61.09
2022-08-30T09:07:21.230Z,61.60
2022-08-30T09:09:54.302Z,61.14
2022-08-30T09:12:27.755Z,60.86
2022-08-30T09:15:07.675Z,60.20
2022-08-30T09:17:54.375Z,60.31
2022-08-30T09:20:31.636Z,60.19
2022-08-30T09:23:32.602Z,59.84
2022-08-30T09:26:09.276Z,59.67
2022-08-30T09:28:49.428Z,59.59
2022-08-30T09:31:24.687Z,59.00
2022-08-30T09:34:04.159Z,59.65
2022-08-30T09:36:44.161Z,59.28
2022-08-30T09:39:20.446Z,59.62
2022-08-30T09:41:54.848Z,59.40
2022-08-30T09:44:28.398Z,58.49
2022-08-30T09:47:01.736Z,58.31
2022-08-30T09:49:36.403Z,58.25
2022-08-30T09:52:34.879Z,58.52
2022-08-30T09:55:21.393Z,58.41
2022-08-30T09:58:00.986Z,58.03
2022-08-30T10:00:39.205Z,57.72
2022-08-30T10:06:27.917Z,57.53
2022-08-30T10:09:11.834Z,57.47
2022-08-30T10:11:57.645Z,57.39
2022-08-30T10:14:56.701Z,58.03
2022-08-30T10:17:42.392Z,57.18
2022-08-30T10:20:23.908Z,57.14
2022-08-30T10:23:06.526Z,56.98
2022-08-30T10:25:44.153Z,56.55
2022-08-30T10:28:23.276Z,56.57
2022-08-30T10:31:00.519Z,56.74
2022-08-30T10:33:38.187Z,56.12
2022-08-30T10:36:13.533Z,55.72
2022-08-30T10:38:50.335Z,55.58
2022-08-30T10:41:29.116Z,55.33
2022-08-30T10:44:08.428Z,55.78
2022-08-30T10:46:57.042Z,55.70
2022-08-30T10:49:35.302Z,55.36
2022-08-30T10:52:25.548Z,56.41
2022-08-30T10:55:03.070Z,56.04
2022-08-30T10:57:36.003Z,55.55
2022-08-30T11:00:13.867Z,55.95
2022-08-30T11:03:21.554Z,56.56
2022-08-30T11:06:16.548Z,56.15
2022-08-30T11:09:10.459Z,55.63
2022-08-30T11:12:00.823Z,55.27
2022-08-30T11:14:34.592Z,54.50
2022-08-30T11:17:27.298Z,55.29
2022-08-30T11:20:02.697Z,54.70
2022-08-30T11:25:57.395Z,55.27
2022-08-30T11:29:04.873Z,55.33
2022-08-30T11:31:41.733Z,53.83
2022-08-30T11:34:55.216Z,55.11
2022-08-30T11:37:43.065Z,53.93
2022-08-30T11:40:46.153Z,54.77
2022-08-30T11:43:51.195Z,55.46
2022-08-30T11:46:38.385Z,54.33
2022-08-30T11:49:47.261Z,54.39
2022-08-30T11:52:43.819Z,54.57
2022-08-30T11:55:45.144Z,53.99
2022-08-30T11:58:26.234Z,53.39
2022-08-30T12:01:51.296Z,55.02
2022-08-30T12:04:37.827Z,53.96
2022-08-30T12:07:11.604Z,53.30
2022-08-30T12:10:02.388Z,54.54
2022-08-30T12:13:03.079Z,54.76
2022-08-30T12:15:57.228Z,54.22
2022-08-30T12:18:45.547Z,53.83
2022-08-30T12:21:29.149Z,53.24
2022-08-30T12:24:15.648Z,52.87
2022-08-30T12:26:50.279Z,53.27
2022-08-30T12:29:25.197Z,52.20
2022-08-30T12:32:03.182Z,52.00
2022-08-30T12:34:49.604Z,52.11
2022-08-30T12:37:26.014Z,52.32
2022-08-30T12:40:06.096Z,52.71
2022-08-30T12:42:41.550Z,52.00
2022-08-30T12:45:16.677Z,52.31
2022-08-30T12:47:54.017Z,52.05
2022-08-30T12:50:31.440Z,52.42
2022-08-30T12:53:13.555Z,51.99
2022-08-30T12:55:53.217Z,51.97
2022-08-30T12:58:41.071Z,51.89
2022-08-30T13:01:29.786Z,51.54
2022-08-30T13:04:13.940Z,52.17
2022-08-30T13:06:50.581Z,51.47
2022-08-30T13:09:32.382Z,51.31
2022-08-30T13:12:08.341Z,51.57
2022-08-30T13:14:43.491Z,52.04
2022-08-30T13:17:27.626Z,52.22
2022-08-30T13:20:05.867Z,51.46
2022-08-30T13:22:40.706Z,51.31
2022-08-30T13:25:14.987Z,51.36
2022-08-30T13:27:47.513Z,51.46
2022-08-30T13:30:20.697Z,51.45
2022-08-30T13:32:53.385Z,50.96
2022-08-30T13:35:25.962Z,50.80
2022-08-30T13:38:01.518Z,51.42
2022-08-30T13:40:36.124Z,51.18
2022-08-30T13:43:08.743Z,52.01
2022-08-30T13:45:41.961Z,52.08
2022-08-30T13:48:17.384Z,52.15
2022-08-30T13:50:57.479Z,52.09
2022-08-30T13:56:25.058Z,53.00
2022-08-30T13:58:58.090Z,52.87
2022-08-30T14:02:07.689Z,52.80
2022-08-30T14:04:25.191Z,53.27
2022-08-30T14:07:19.970Z,53.05
2022-08-30T14:09:52.066Z,53.63
2022-08-30T14:15:19.920Z,53.41
2022-08-30T14:17:53.017Z,53.14
2022-08-30T14:20:25.885Z,52.85
2022-08-30T14:22:59.766Z,52.97
2022-08-30T14:25:33.122Z,52.69
2022-08-30T14:28:07.451Z,52.45
2022-08-30T14:30:42.236Z,53.07
2022-08-30T14:33:15.926Z,52.63
2022-08-30T14:35:48.700Z,52.43
2022-08-30T14:38:21.954Z,52.75
2022-08-30T14:40:54.952Z,52.40
2022-08-30T14:43:29.090Z,52.95
2022-08-30T14:46:02.169Z,52.70
2022-08-30T14:48:36.242Z,52.98
2022-08-30T14:51:13.521Z,52.99
2022-08-30T14:53:47.941Z,53.47
2022-08-30T14:56:22.451Z,53.51
2022-08-30T14:59:00.764Z,53.86
2022-08-30T15:01:37.100Z,53.71
2022-08-30T15:04:11.248Z,53.58
2022-08-30T15:06:48.549Z,53.82
2022-08-30T15:09:23.907Z,54.14
2022-08-30T15:11:58.788Z,54.06
2022-08-30T15:14:33.196Z,53.91
2022-08-30T15:17:05.916Z,54.47
2022-08-30T15:19:39.697Z,54.33
2022-08-30T15:22:12.173Z,54.72
2022-08-30T15:24:48.783Z,54.35
2022-08-30T15:27:24.051Z,54.26
2022-08-30T15:29:57.992Z,54.17
2022-08-30T15:32:32.101Z,54.61
2022-08-30T15:35:05.771Z,54.44
2022-08-30T15:37:40.550Z,54.56
2022-08-30T15:40:13.309Z,54.21
2022-08-30T15:42:46.147Z,54.49
2022-08-30T15:45:20.246Z,54.31
2022-08-30T15:47:52.836Z,53.98
2022-08-30T15:50:26.101Z,54.17
2022-08-30T15:52:58.551Z,54.24
2022-08-30T15:55:31.140Z,54.02
2022-08-30T15:58:04.492Z,54.19
2022-08-30T16:00:44.860Z,54.03
2022-08-30T16:03:17.918Z,54.06
2022-08-30T16:05:52.608Z,54.25
2022-08-30T16:08:25.776Z,54.13
2022-08-30T16:10:58.374Z,53.83
2022-08-30T16:13:31.400Z,54.03
2022-08-30T16:16:08.805Z,54.54
2022-08-30T16:18:41.456Z,54.51
2022-08-30T16:21:17.001Z,54.36
2022-08-30T16:23:49.634Z,54.96
2022-08-30T16:26:22.710Z,54.65
2022-08-30T16:28:56.073Z,55.01
2022-08-30T16:31:31.710Z,55.43
2022-08-30T16:34:05.499Z,55.46
2022-08-30T16:36:39.939Z,55.41
2022-08-30T16:39:13.618Z,56.52
2022-08-30T16:41:46.732Z,55.89
2022-08-30T16:44:20.801Z,56.38
2022-08-30T16:46:55.110Z,56.09
2022-08-30T16:49:28.003Z,56.33
2022-08-30T16:52:00.944Z,56.90
2022-08-30T16:54:33.765Z,56.95
2022-08-30T16:57:06.625Z,56.66
2022-08-30T16:59:39.615Z,56.74
2022-08-30T17:02:13.754Z,56.80
2022-08-30T17:04:49.793Z,56.73
2022-08-30T17:07:25.118Z,56.68
2022-08-30T17:09:58.269Z,57.14
2022-08-30T17:12:31.322Z,56.96
2022-08-30T17:15:05.587Z,57.16
2022-08-30T17:17:43.078Z,57.22
2022-08-30T17:20:16.556Z,56.95
2022-08-30T17:22:49.263Z,57.05
2022-08-30T17:25:21.938Z,57.04
2022-08-30T17:27:54.603Z,57.32
2022-08-30T17:30:27.526Z,57.47
2022-08-30T17:33:01.599Z,57.54
2022-08-30T17:35:34.528Z,57.37
2022-08-30T17:38:08.304Z,57.82
2022-08-30T17:40:43.875Z,57.96
2022-08-30T17:43:16.483Z,57.75
2022-08-30T17:45:48.995Z,58.33
2022-08-30T17:48:23.197Z,58.25
2022-08-30T17:50:56.238Z,58.45
2022-08-30T17:53:29.718Z,58.05
2022-08-30T17:56:03.448Z,58.61
2022-08-30T17:58:36.404Z,58.86
2022-08-30T18:01:12.020Z,58.82
2022-08-30T18:03:46.422Z,59.14
2022-08-30T18:06:19.479Z,59.22
2022-08-30T18:08:53.085Z,59.43
2022-08-30T18:11:26.164Z,59.74
2022-08-30T18:13:58.982Z,59.54
2022-08-30T18:16:32.744Z,59.85
2022-08-30T18:19:10.790Z,59.77
2022-08-30T18:21:43.839Z,60.07
2022-08-30T18:24:16.878Z,60.13
2022-08-30T18:26:49.899Z,60.10
2022-08-30T18:29:28.957Z,60.54
2022-08-30T18:32:04.362Z,60.37
2022-08-30T18:34:42.386Z,60.65
2022-08-30T18:37:16.925Z,60.78
2022-08-30T18:39:50.347Z,60.65
2022-08-30T18:42:23.581Z,61.05
2022-08-30T18:44:56.220Z,61.11
2022-08-30T18:47:30.186Z,61.33
2022-08-30T18:50:05.314Z,61.13
2022-08-30T18:52:38.730Z,61.45
2022-08-30T18:55:12.926Z,61.47
2022-08-30T18:57:45.733Z,61.69
2022-08-30T19:00:19.984Z,61.81
2022-08-30T19:02:53.253Z,61.94
2022-08-30T19:05:28.989Z,62.21
2022-08-30T19:08:03.264Z,62.16
2022-08-30T19:10:36.567Z,62.23
2022-08-30T19:13:10.952Z,62.59
2022-08-30T19:15:43.658Z,62.52
2022-08-30T19:18:18.879Z,62.52
2022-08-30T19:20:53.320Z,62.75
2022-08-30T19:23:33.060Z,62.77
2022-08-30T19:26:07.067Z,62.57
2022-08-30T19:28:40.462Z,62.74
2022-08-30T19:31:13.167Z,62.41
2022-08-30T19:33:45.913Z,62.43
2022-08-30T19:36:20.439Z,62.10
2022-08-30T19:38:53.116Z,62.03
2022-08-30T19:41:29.811Z,62.09
2022-08-30T19:44:03.436Z,61.70
2022-08-30T19:46:37.186Z,61.82
2022-08-30T19:49:11.297Z,61.90
2022-08-30T19:51:47.043Z,62.05
2022-08-30T19:54:20.004Z,61.92
2022-08-30T19:56:52.599Z,61.80
2022-08-30T19:59:25.093Z,61.88
2022-08-30T20:01:57.887Z,62.27
2022-08-30T20:04:31.765Z,62.09
2022-08-30T20:07:06.186Z,61.96
2022-08-30T20:09:40.441Z,62.07
2022-08-30T20:12:13.825Z,61.98
2022-08-30T20:14:46.586Z,62.28
2022-08-30T20:17:19.165Z,62.23
2022-08-30T20:19:51.694Z,62.37
2022-08-30T20:22:26.749Z,62.35
2022-08-30T20:24:59.410Z,62.45
2022-08-30T20:27:32.190Z,62.52
2022-08-30T20:30:05.505Z,62.60
2022-08-30T20:32:38.783Z,62.68
2022-08-30T20:35:11.941Z,62.98
2022-08-30T20:37:46.586Z,62.97
2022-08-30T20:40:20.833Z,63.30
2022-08-30T20:42:53.854Z,63.28
2022-08-30T20:45:28.747Z,63.46
2022-08-30T20:48:05.873Z,63.37
2022-08-30T20:50:38.789Z,63.43
2022-08-30T20:53:13.379Z,63.49
2022-08-30T20:55:47.547Z,63.73
2022-08-30T20:58:20.178Z,63.86
2022-08-30T21:00:53.545Z,63.87
2022-08-30T21:03:27.899Z,64.05
2022-08-30T21:06:01.014Z,63.92
2022-08-30T21:08:35.599Z,64.29
2022-08-30T21:11:08.427Z,64.37
2022-08-30T21:13:40.970Z,64.47
2022-08-30T21:16:13.746Z,64.47
2022-08-30T21:18:46.304Z,64.48
2022-08-30T21:21:21.583Z,64.66
2022-08-30T21:23:59.495Z,64.60
2022-08-30T21:26:32.359Z,64.80
2022-08-30T21:29:05.458Z,64.58
2022-08-30T21:31:39.040Z,64.89
2022-08-30T21:34:17.531Z,64.87
2022-08-30T21:36:51.174Z,65.06
2022-08-30T21:39:27.557Z,65.05
2022-08-30T21:42:00.043Z,65.14
2022-08-30T21:44:32.566Z,65.35
2022-08-30T21:47:06.223Z,65.52
2022-08-30T21:49:39.091Z,65.57
2022-08-30T21:52:11.594Z,65.61
2022-08-30T21:54:45.938Z,65.79
2022-08-30T21:57:18.505Z,65.66
2022-08-30T21:59:51.117Z,65.83
2022-08-30T22:02:23.723Z,66.01
2022-08-30T22:04:56.496Z,66.01
2022-08-30T22:07:29.175Z,66.14
2022-08-30T22:10:04.663Z,66.27
2022-08-30T22:12:38.671Z,66.40
2022-08-30T22:15:14.351Z,66.36
2022-08-30T22:17:47.189Z,66.55
2022-08-30T22:20:19.856Z,66.76
2022-08-30T22:22:53.675Z,66.88
2022-08-30T22:25:28.001Z,67.00
2022-08-30T22:28:00.603Z,67.37
2022-08-30T22:30:37.173Z,66.96
2022-08-30T22:33:09.737Z,67.13
2022-08-30T22:35:43.685Z,67.38
2022-08-30T22:38:16.351Z,67.48
2022-08-30T22:40:54.268Z,67.50
2022-08-30T22:43:27.291Z,67.63
2022-08-30T22:46:00.522Z,67.60
2022-08-30T22:48:33.542Z,67.83
2022-08-30T22:51:07.125Z,68.03
2022-08-30T22:53:39.852Z,67.97
2022-08-30T22:56:16.941Z,67.96
2022-08-30T22:58:50.092Z,68.00
2022-08-30T23:01:24.983Z,68.14
2022-08-30T23:03:58.704Z,68.21
2022-08-30T23:06:31.465Z,68.11
2022-08-30T23:09:04.541Z,68.62
2022-08-30T23:11:38.869Z,68.90
2022-08-30T23:14:11.357Z,68.76
2022-08-30T23:16:44.211Z,68.61
2022-08-30T23:19:17.099Z,68.84
2022-08-30T23:21:49.702Z,68.75
2022-08-30T23:24:40.905Z,69.08
2022-08-30T23:27:39.006Z,69.19
2022-08-30T23:30:31.330Z,68.62
2022-08-30T23:33:22.622Z,69.42
2022-08-30T23:36:14.060Z,69.49
2022-08-30T23:39:05.989Z,69.39
2022-08-30T23:41:57.262Z,69.64
2022-08-30T23:44:49.971Z,69.79
2022-08-30T23:47:42.927Z,70.22
2022-08-30T23:50:34.561Z,69.67
2022-08-30T23:53:25.770Z,69.93
2022-08-30T23:56:17.504Z,70.11
2022-08-30T23:59:08.446Z,69.82
